Strona główna
METAR-TAF:

METAR-TAF

Lotnisko :

Port lotniczy Kair

Kair, Egipt

Szerokość geograficzna: 30-08N, Długość geograficzna: 031-24E, wysokość: 64 m

Aktualna obserwacja pogody

Raport powstał 29 minut temu, godzina 12:30 UTC
Wiatr 9 kt od północny zachód
Temperatura 16°C
Wilgotność 48%
Ciśnienie 1020 hPa
Widzialność 10 km lub więcej
Rozproszone chmury na wysokości 2500 ft
Przerywane chmury na wysokości 7000 ft

METAR: HECA 181230Z 31009KT 9999 SCT025 BKN070 16/05 Q1020 NOSIG

czas: 14:59 (12:59 UTC)

Prognoza

Raport powstał 1 godzina i 59 minut temu, godzina 11:00 UTC
Prognoza ważna od 18 godzina 12 UTC do 19 godzina 18 UTC
Wiatr 10 kt od północny zachód
Widzialność 10 km lub więcej
Rozproszone chmury na wysokości 2500 ft
Przejściowo
od 19 godzina 00 UTC do 19 godzina 06 UTC
Wiatr 3 kt z kierunków zmiennych
Widzialność: 4000 m
zmętnienie

TAF: HECA 181100Z 1812/1918 31010KT 9999 SCT025 TEMPO 1900/1906 VRB03KT 4000 HZ NSC

Obserwacja i prognoza pogody dla ponad 4000 lotnisk (raport METAR i TAF).

Dostępne stacje oznaczono żółtymi i czerwonymi punktami na mapie.

Najedź kursorem aby zobaczyć nazwę stacji.

Kliknij aby zobaczyć obserwacje i prognozy pogody.

Aby zmienić mapę: kliknij na zielony przycisk z czarnym krzyżykiem, aby powiększyć; na zielony przycisk z myślnikiem, aby pomniejszyć; na zielone strzałki, aby przejść do map sąsiednich.


METAR-TAF: